New Sweden, Idaho
Current Conditions -  °F | °C
As of 4:53 PM on Saturday 25 Oct 2014 (Local Time) from KIDA Reporting Station
Scattered Clouds Scattered Clouds  
Wind Chill: 73°   Ceiling: Unl
Heat Index: 73°   Visibility: 10mi
Dew Point: 30°   Wind: 25mph
Humidity: 20%   Direction: 210°SSW
Pressure: 29.89"   Gusts: 32mph
Location:  43.498°N, 111.73°W
Report Text: KIDA 252253Z 21022G28KT 10SM SCT110 23/M01 A2989 RMK AO2 PK WND 21032/2211 SLP101 T02281011
Loading
Personal Weather Stations






























Interactive Weather Map New forecast layout! Learn more

10-Day Weather Forecast

Advertisements
Track Severe Weather on mobile